Florida AWOS List, Phone Numbers

USA |  
| Search AWOS

Rocky Mountain States: Montana | Wyoming | Colorado | New Mexico

Complete weather reports: Florida

Legend: KFNL = METAR available Follow your local AWOS on AV Mobile = METAR available on AV Mobile
Station Florida Location Frequency Phone
KAQQICAO ID KAQQ Apalachicola, Apalachicola
KAAFFAA ID AAF, ASOS, KAAF 211953Z AUTO 05005KT 5SM -RA BR OVC004 17/14 A3001 RMK AO2 RAE06B51 SLP160 P0000 T01670144 TSNO Follow KAAF on AV Mobile APALACHICOLA MUNICIPAL AIRPORT 119.925 850-653-8271
KNAEICAO ID KNAE Astor, Bombing Range Detachment Astor
KAVOFAA ID AVO, AWOS-3 AVON PARK 118.725 863-453-4223
KAGRFAA ID AGR Avon Park Gunnery Range
KBOWFAA ID BOW, AWOS-3, KBOW 211950Z 17010KT 10SM FEW035 BKN100 26/16 A3001 Follow KBOW on AV Mobile Bartow Municipal 123.775 863-533-9004
F95FAA ID F95, AWOS-AV, KAJZ 212000Z AUTO 00000KT 7SM -SN SCT006 BKN029 OVC043 02/00 A2996 RMK AO2 T00230003 Follow  on AV Mobile BLOUNTSTOWN 119.350 850-674-1347
KBCTFAA ID BCT, AWOS-3, KBCT 211953Z 16006G17KT 10SM FEW027 SCT120 25/19 A3003 Follow KBCT on AV Mobile Boca Raton, Boca Raton Airport 121.125 561-391-2696
K1J0FAA ID 1J0, K1J0 200758Z AUTO 03004KT 10SM 08/08 A3011 RMK AO2 RAB0643B0606B0648 SLP181 P0003 T00830078 $ Follow K1J0 on AV Mobile TRI COUNTY AIRPORT
KBKVFAA ID BKV, ASOS, KBKV 211953Z 13003KT 10SM BKN055 OVC070 23/17 A3001 RMK AO2 LTG DSNT SW-NW SLP162 T02280172 Follow KBKV on AV Mobile BROOKSVILLE HERNANDO CO AIRPORT 134.725 352-799-5881
K1J4ICAO ID K1J4 Cape San Blas Coast Guard Station
KNZCICAO ID KNZC Cecil, Naval Air Station
2ISFAA ID 2IS, AWOS-3, KAJZ 212000Z AUTO 00000KT 7SM -SN SCT006 BKN029 OVC043 02/00 A2996 RMK AO2 T00230003 Follow  on AV Mobile CLEWISTON 124.175 863-983-7020
KX53ICAO ID KX53 Clewiston
KCOFFAA ID COF, KCOF 211958Z AUTO 13011KT 10SM CLR 24/20 A3002 RMK AO2 SLP170 T02400197 Follow KCOF on AV Mobile Cocoa / Patrick Air Force Base
KXMRFAA ID XMR, KXMR 211858Z AUTO 15007KT 10SM CLR 25/18 A3002 RMK AO2 SLP169 T02470179 Follow KXMR on AV Mobile Cocoa Beach, Cape Canaveral Air Force Station Skid Strip
KCEWFAA ID CEW, ASOS, KCEW 211953Z AUTO 07005KT 10SM OVC008 14/12 A3005 RMK AO2 SLP174 T01390117 Follow KCEW on AV Mobile CRESTVIEW SIKES AIRPORT 119.275 850-682-1237
KEGIFAA ID EGI, KEGI 211855Z 06004KT 7SM OVC007 13/12 A3004 RMK AO2A SLP175 T01340117 $ Follow KEGI on AV Mobile Duke Field / Eglin Auxiliary
KCTYFAA ID CTY, KCTY 211953Z AUTO VRB03KT 17/17 A3002 RMK AO1 SLP163 T01720172 Follow KCTY on AV Mobile CROSS CITY AIRPORT
KCGCFAA ID CGC, AWOS-3, KCGC 211955Z AUTO 00000KT 5SM TSRA SCT055 SCT070 BKN120 18/17 A3002 RMK AO2 LTG DSNT S AND SW P0006 Follow KCGC on AV Mobile CRYSTAL RIVER 118.325 352-563-6600
KDABFAA ID DAB, ASOS, KDAB 211953Z 05006KT 9SM FEW030 FEW050 BKN140 OVC250 22/17 A3002 RMK AO2 SLP165 T02220172 Follow KDAB on AV Mobile DAYTONA BEACH INTERNATIONAL 386-253-7469
54JFAA ID 54J, AWOS-3P, KAJZ 212000Z AUTO 00000KT 7SM -SN SCT006 BKN029 OVC043 02/00 A2996 RMK AO2 T00230003 Follow  on AV Mobile DEFUNIAK SPRINGS 118.725 850-892-0147
KDEDFAA ID DED, AWOS-3, KDED 211935Z AUTO 18003KT 10SM CLR A3002 RMK AO1 Follow KDED on AV Mobile DELAND 119.575 386-740-5811
KDTSFAA ID DTS, ASOS, KDTS 211953Z AUTO 05004KT 5SM BR OVC005 14/13 A3003 RMK AO2 SLP167 T01390128 TSNO Follow KDTS on AV Mobile DESTIN-FT WALTON BEACH AIRPORT 133.925 850-654-7128
KX91ICAO ID KX91 Egmont Key Coast Guard Station
KFHBFAA ID FHB, AWOS-3, KFHB 211935Z AUTO 04015KT 4SM OVC004 17/15 A3004 RMK AO1 LTG DSNT SW Follow KFHB on AV Mobile FERNANDINA BEACH 118.075 904-277-7323
KFXEFAA ID FXE, ASOS, KFXE 211953Z 14012KT 10SM SCT120 BKN250 26/18 A3002 RMK AO2 SLP168 T02560178 $ Follow KFXE on AV Mobile FORT LAUDERDALE EXECUTIVE 954-772-2537
KFLLFAA ID FLL, ASOS, KFLL 211953Z 13012KT 10SM FEW029 FEW120 BKN250 24/18 A3002 RMK AO2 SLP163 T02440183 Follow KFLL on AV Mobile FORT LAUDERDALE/HOLLYWOOD 954-359-7857
KFMYFAA ID FMY, ASOS, KFMY 211953Z 22008KT 10SM BKN090 26/19 A3000 RMK AO2 SLP161 T02560189 Follow KFMY on AV Mobile FORT MYERS PAGE FIELD 239-936-2318
KRSWFAA ID RSW, ASOS, KRSW 211953Z 18007KT 10SM SCT080 26/18 A3001 RMK AO2 SLP158 T02610178 Follow KRSW on AV Mobile FORT MYERS SW FL INTERNATIONAL AIRPORT 239-561-0966
KX82ICAO ID KX82 Fort Pierce Coast Guard Station
KFPRFAA ID FPR, ASOS, KFPR 211953Z 13010KT 10SM BKN120 25/18 A3002 RMK AO2 SLP166 T02500183 Follow KFPR on AV Mobile FORT PIERCE ST LUCIE 772-489-4281
KX86ICAO ID KX86 Fowey Rocks Coast Guard Station
KX89ICAO ID KX89 Ft. Myers Beach Coast Guard Station
KGNVFAA ID GNV, ASOS, KGNV 211953Z 08004KT 4SM BR OVC005 17/16 A3004 RMK AO2 SLP170 T01720161 Follow KGNV on AV Mobile GAINESVILLE REGIONAL AIRPORT 352-335-8672
KHWOFAA ID HWO, ASOS, KHWO 211953Z 12011KT 10SM CLR 26/18 A3003 RMK AO2 SLP169 T02560178 Follow KHWO on AV Mobile HOLLYWOOD NORTH PERRY AIRPORT 954-983-5904
X51FAA ID X51, AWOS-3, KAJZ 212000Z AUTO 00000KT 7SM -SN SCT006 BKN029 OVC043 02/00 A2996 RMK AO2 T00230003 Follow  on AV Mobile HOMESTEAD 118.375 (305) 247-2791
KHSTFAA ID HST, KHST 211758Z AUTO 11007KT 10SM CLR 26/18 A3007 RMK AO2 SLP186 T02570180 10265 20164 58014 $ Follow KHST on AV Mobile Homestead Air Force Base
KIMMFAA ID IMM, AWOS-3, KIMM 211955Z AUTO 17005KT 9SM FEW085 28/18 A3002 RMK A01 P000 Follow KIMM on AV Mobile IMMOKALEE 118.525 239-657-2038
KINFFAA ID INF, AWOS-3, KINF 211955Z AUTO 00000KT 5SM -VCTSRA SCT033 BKN050 OVC060 18/17 A3003 RMK AO2 LTG DSNT SW P0003 Follow KINF on AV Mobile INVERNESS 119.975 352-341-0264
KX84ICAO ID KX84 Islamorada Coast Guard Station
KHEGFAA ID HEG, AWOS-3 JACKSONVILLE 119.275 904-695-0334
KCRGFAA ID CRG, ASOS, KCRG 211953Z 02008KT 3SM BR OVC004 16/14 A3004 RMK AO2 SLP173 T01610144 Follow KCRG on AV Mobile JACKSONVILLE CRAIG MUN 904-646-4670
KJAXFAA ID JAX, ASOS, KJAX 211956Z 04009KT 3SM BR OVC004 14/14 A3004 RMK AO2 RAB13E50 SLP174 P0000 T01390139 Follow KJAX on AV Mobile JACKSONVILLE INTERNATIONAL 904-741-4304
KNIPFAA ID NIP, KNIP 211953Z 03008KT 4SM -RA BR OVC005 17/14 A3005 RMK AO2 RAE09B32 SLP170 T2 SET P0000 T01670144 $ Follow KNIP on AV Mobile JACKSONVILLE NAVAL AIR STN
KVQQFAA ID VQQ, AWOS-3, KVQQ 211950Z VRB05KT 2SM BR OVC003 15/14 A3005 Follow KVQQ on AV Mobile Jacksonville, Cecil Field Airport 125.275 904-778-6934
KNENFAA ID NEN NOLF WHITEHOUSE FIELD, FL
KX80ICAO ID KX80 Jupiter Inlet Coast Guard Station
KEYWFAA ID EYW, ASOS, KEYW 211953Z 12011KT 10SM SCT028 26/21 A3000 RMK AO2 SLP160 T02560206 Follow KEYW on AV Mobile KEY WEST INTERNATIONAL AIRPORT 119.65 305-292-4046
KNQXFAA ID NQX, KNQX 211953Z 13012KT 10SM FEW035 BKN090 27/21 A3000 RMK AO2 SLP157 T02720206 Follow KNQX on AV Mobile KEY WEST NAVAL AIR STATION
K42JFAA ID 42J, AWOS-3, K42J 211955Z AUTO 05003KT 3SM OVC003 16/16 A3005 RMK AO1 TSNO Follow K42J on AV Mobile KEYSTONE HEIGHTS 124.275 352-473-8273
KLCQFAA ID LCQ, AWOS-3, KLCQ 211935Z AUTO 09003KT 10SM OVC004 13/13 A3004 RMK AO2 LTG DSNT S Follow KLCQ on AV Mobile LAKE CITY 120.675 386-754-9366
X07FAA ID X07, AWOS-3, KAJZ 212000Z AUTO 00000KT 7SM -SN SCT006 BKN029 OVC043 02/00 A2996 RMK AO2 T00230003 Follow  on AV Mobile LAKE WALES 124.225 863-678-1334
KX81ICAO ID KX81 Lake Worth Inlet
KLALFAA ID LAL, AWOS-3PT, KLAL 211950Z 18006KT 15SM BKN075 OVC120 26/16 A3001 Follow KLAL on AV Mobile Lakeland Regional 118.025 863-834-2030
KLEEFAA ID LEE, ASOS, KLEE 211953Z 17004KT 10SM FEW040 24/17 A3002 RMK AO2 SLP165 T02390167 Follow KLEE on AV Mobile LEESBURG REGIONAL AIRPORT 134.325 352-787-1565
24JFAA ID 24J, AWOS-3, KAJZ 212000Z AUTO 00000KT 7SM -SN SCT006 BKN029 OVC043 02/00 A2996 RMK AO2 T00230003 Follow  on AV Mobile LIVE OAK 118.225 386-362-1731
KX88ICAO ID KX88 Marathon Coast Guard Station
KMTHFAA ID MTH, ASOS, KMTH 211953Z AUTO 14006KT 10SM CLR 27/21 A3001 RMK AO2 SLP162 T02670206 $ Follow KMTH on AV Mobile MARATHON AIRPORT 135.525 305-743-8373
KMKYFAA ID MKY, AWOS-3, KMKY 211955Z AUTO 15011G17KT 10SM CLR 26/19 A3001 RMK AO1 Follow KMKY on AV Mobile MARCO ISLAND 120.075 239-394-8187
KMAIFAA ID MAI, ASOS, KMAI 211953Z AUTO 08004KT 3SM BR OVC004 13/13 A3004 RMK AO2 SLP171 T01280128 $ Follow KMAI on AV Mobile MARIANNA MUNICIPAL AIRPORT 133.525 850-482-6082
KHRTFAA ID HRT, KHRT 211958Z AUTO 06006KT 10SM OVC006 14/11 A3001 RMK AO2 SLP164 T01360108 $ Follow KHRT on AV Mobile Hurlburt Field
KNRBFAA ID NRB, KNRB 211952Z AUTO 02012KT 1 1/2SM +RA BR BKN007 BKN017 OVC043 16/15 A3004 RMK AO2 RAB46 SLP170 P0008 T01610150 $ Follow KNRB on AV Mobile MAYPORT NAVAL AIR FACILITY
KMLBFAA ID MLB, ASOS, KMLB 211953Z AUTO 14010KT 10SM BKN047 24/18 A3002 RMK AO2 SLP165 T02440183 Follow KMLB on AV Mobile MELBOURNE INTERNATIONAL 321-723-7403
KCOIFAA ID COI, AWOS-3 Merritt Island, Merritt Island Airport 119.025 321-986-8864
KTNTFAA ID TNT, AWOS-3 MIAMI 119.075 (239) 695-9198
KX87ICAO ID KX87 Miami Beach Coast Guard Station
KAMXICAO ID KAMX Miami Nexrad
KTMBFAA ID TMB, ASOS, KTMB 211953Z 13008KT 10SM CLR 25/17 A3003 RMK AO2 SLP167 T02500172 $ Follow KTMB on AV Mobile KENDALL-TAMIAMI EXEC AIRPORT 305-235-1332
KMIAFAA ID MIA, ASOS, KMIA 211953Z 13010KT 10SM FEW035 BKN120 BKN250 25/17 A3003 RMK AO2 SLP168 T02500172 Follow KMIA on AV Mobile MIAMI INTERNATIONAL AIRPORT 305-870-0235
KOPFFAA ID OPF, KOPF 211953Z 14009KT 10SM SCT034 25/17 A3002 RMK AO2 SLP167 T02500172 Follow KOPF on AV Mobile MIAMI OPA LOCKA AIRPORT
KNFJFAA ID NFJ CHOCTAW, WHITING FIELD, NOLF
KNSEFAA ID NSE, KNSE 211956Z 11005KT 8SM OVC007 13/12 A3003 RMK AO2 P0000 T01330117 $ Follow KNSE on AV Mobile MILTON WHITING FIELD (NORTH)
KNDZFAA ID NDZ, KNDZ 211956Z 10005KT 8SM OVC007 14/12 A3003 RMK AO2 SLP158 T01440117 $ Follow KNDZ on AV Mobile MILTON WHITING FIELD (SOUTH)
KAPFFAA ID APF, ASOS, KAPF 211953Z 15010KT 10SM SCT026 27/19 A3001 RMK AO2 SLP159 T02670194 Follow KAPF on AV Mobile NAPLES MUNICIPAL AIRPORT 239-643-9886
KRRFICAO ID KRRF New Port Richey, Tampa Bay Executive Airport
KEVBFAA ID EVB, AWOS-3, KEVB 211947Z 00000KT 10SM FEW045 21/18 A3003 Follow KEVB on AV Mobile New Smyrna Beach, New Smyrna Beach Municipal Airport 124.625 386-409-4705
KOCFFAA ID OCF, AWOS-3, KOCF 211950Z 07004KT 8SM SCT012 19/17 A3003 Follow KOCF on AV Mobile Ocala, Ocala International Airport-Jim Taylor Field 128.125 352-237-8525
KOBEFAA ID OBE, AWOS-3, KOBE 211935Z AUTO 19008KT 10SM OVC110 24/18 A3003 RMK AO2 LTG DSNT NW Follow KOBE on AV Mobile Okeechobee County Airport 118.675 863-467-1148
KORLFAA ID ORL, ASOS, KORL 211953Z 21007KT 10SM FEW120 25/17 A3002 RMK AO2 SLP168 T02500167 Follow KORL on AV Mobile ORLANDO EXECUTIVE AIRPORT 407-658-6753
KMCOFAA ID MCO, ASOS, KMCO 211953Z 20007KT 10SM FEW035 BKN130 BKN300 26/17 A3002 RMK AO2 SLP163 T02610167 Follow KMCO on AV Mobile ORLANDO INTERNATIONAL AIRPORT 407-855-5235
KSFBFAA ID SFB, ASOS, KSFB 211953Z 19005KT 10SM OVC050 26/16 A3001 RMK AO2 SLP162 T02560161 Follow KSFB on AV Mobile ORLANDO SANFORD AIRPORT 407-321-9384
KISMFAA ID ISM, AWOS-3, KISM 211950Z 15006KT 10SM SCT075 26/18 A3002 Follow KISM on AV Mobile Orlando, Kissimmee Municipal Airport 128.775 407-847-0533
KOMNFAA ID OMN, AWOS-3, KOMN 211950Z 05004KT 7SM BKN050 20/17 A3003 Follow KOMN on AV Mobile Ormond Beach, Ormond Beach Municipal Airport 118.475 386-615-7084
28JFAA ID 28J, AWOS-3, KAJZ 212000Z AUTO 00000KT 7SM -SN SCT006 BKN029 OVC043 02/00 A2996 RMK AO2 T00230003 Follow  on AV Mobile PALATKA 119.92 386-312-2212
KXFLFAA ID XFL, AWOS-3, KXFL 132150Z VRB03KT 7SM CLR 21/18 A2999 Follow KXFL on AV Mobile PALM COAST 128.325 386-437-7334
KECPFAA ID ECP, ASOS, KECP 211953Z 01005KT 2SM BR OVC003 13/12 A3002 RMK AO2 SLP176 T01330122 $ Follow KECP on AV Mobile PANAMA CITY 119.975 850-235-7857
KPFNICAO ID KPFN, KPFN 030253Z VRB03KT 10SM FEW023 25/23 A2989 Follow KPFN on AV Mobile PANAMA CITY-BAY CTY INTERNATIONAL
KPAMFAA ID PAM, KPAM 211958Z AUTO VRB03KT 3SM BR OVC003 14/14 A3001 RMK AO2 SLPNO T01380137 $ Follow KPAM on AV Mobile Tyndall Air Force Base
KPNSFAA ID PNS, ASOS, KPNS 211953Z VRB03KT 8SM OVC007 13/12 A3002 RMK AO2 SLP169 T01280122 Follow KPNS on AV Mobile PENSACOLA REGIONAL AIRPORT 850-436-4799
KNPAFAA ID NPA, KNPA 211856Z 04006KT 9SM OVC008 14/12 A3004 RMK AO2 SLP174 T01390122 Follow KNPA on AV Mobile Pensacola, Naval Air Station
K40JFAA ID 40J, AWOS-3PT, K40J 211935Z AUTO 05006KT 10SM OVC007 15/14 A3003 RMK AO2 LTG DSNT S T01470140 Follow K40J on AV Mobile PERRY-FOLEY AIRPORT 118.375 850-838-3526
FA54FAA ID FA54, Belfort CORAL CREEK
KPCMFAA ID PCM, AWOS-3, KPCM 211955Z AUTO 16004KT 10SM SCT080 BKN090 BKN120 26/15 A3002 RMK AO2 Follow KPCM on AV Mobile Plant City, Plant City Municipal Airport 120.025 813-764-8259
KPMPFAA ID PMP, ASOS, KPMP 211953Z 15010KT 10SM CLR 26/18 A3002 RMK AO2 SLP168 T02560178 Follow KPMP on AV Mobile POMPANO BEACH AIRPARK 954-783-3720
K1J3ICAO ID K1J3 Ponce De Leon Inlet
KPGDFAA ID PGD, ASOS, KPGD 211953Z 18010KT 10SM FEW037 FEW080 26/17 A3002 RMK AO2 SLP166 T02560172 Follow KPGD on AV Mobile PUNTA GORDA CHARLOTTE COUNTY 135.675 941-639-0076
K1J5ICAO ID K1J5 Santa Rosa Coast Guard Station
KSRQFAA ID SRQ, ASOS, KSRQ 211953Z AUTO 16011KT 10SM BKN075 BKN090 BKN110 24/18 A2998 RMK AO2 SLP152 T02440178 Follow KSRQ on AV Mobile SARASOTA/BRADENTON INTERNATIONAL . 124.375 941-359-0117
KSEFFAA ID SEF, AWOS-3 SEBRING 119.475 863-655-6424
KSGJFAA ID SGJ, AWOS-3, KSGJ 211926Z 02007KT 3SM BR BKN004 18/17 A3004 RMK AO2 Follow KSGJ on AV Mobile St. Augustine, St. Augustine Airport 904-824-7084
KPIEFAA ID PIE, ASOS, KPIE 211953Z 17004KT 10SM FEW048 OVC100 24/18 A3000 RMK AO2 LTG DSNT N AND NW SLP157 T02390178 Follow KPIE on AV Mobile ST PETERSBURG/CLEARWATER 727-531-3456
KSPGFAA ID SPG, ASOS, KSPG 211953Z 22005KT 10SM -RA SCT031 BKN070 OVC090 23/17 A2998 RMK AO2 LTG DSNT N AND NW RAB40 SLP152 P0000 T02280172 Follow KSPG on AV Mobile ST PETERSBURG WHITTED AIRPORT 118.875 727-821-4334
KSUAFAA ID SUA, AWOS-3, KSUA 211947Z 12010G16KT 7SM SCT040 SCT090 26/17 A3004 Follow KSUA on AV Mobile Stuart, Witham Field Airport 772-692-7399
KTLHFAA ID TLH, ASOS, KTLH 211953Z 07004KT 3SM BR OVC004 14/12 A3003 RMK AO2 SLP166 T01440122 $ Follow KTLH on AV Mobile TALLAHASSEE REGIONAL AIRPORT 850-576-3665
KTBWICAO ID KTBW Tampa Bay Area
KMCFFAA ID MCF, KMCF 211958Z AUTO 18005KT 10SM FEW070 SCT130 24/19 A2999 RMK AO2 LTG DSNT SW SLP159 T02400194 $ Follow KMCF on AV Mobile Macdill Air Force Base, Fl.
KTPAFAA ID TPA, ASOS, KTPA 211953Z 00000KT 10SM FEW045 BKN100 OVC250 24/17 A2999 RMK AO2 SLP156 CB DSNT W-NW SHRA DSNT W-NW T02440167 Follow KTPA on AV Mobile TAMPA INTERNATIONAL AIRPORT 813-873-7228
KTPFFAA ID TPF, AWOS-3, KTPF 211955Z AUTO 18003KT 10SM SCT095 SCT120 25/18 A2999 RMK AO2 Follow KTPF on AV Mobile Tampa, Peter O Knight Airport 118.925 813-251-6824
KVDFFAA ID VDF, AWOS-3, KVDF 211955Z AUTO 11003KT 10SM SCT070 BKN120 25/17 A2999 RMK AO2 Follow KVDF on AV Mobile Tampa, Vandenberg Airport 121.125 813-630-0924
KVLGICAO ID KVLG The Villages
KVVGICAO ID KVVG, KVVG 211935Z AUTO 02004KT 8SM 20/18 A2992 RMK A01 Follow KVVG on AV Mobile The Villages
KX68ICAO ID KX68 Titusville, NASA Shuttle Landing Facility
KTIXFAA ID TIX, KTIX 211950Z VRB05KT 7SM BKN080 24/18 A3002 Follow KTIX on AV Mobile Titusville
KX21FAA ID X21, AWOS-3 Titusville, Arthur Dunn Air Park 119.725 321-385-0383
KTTSFAA ID TTS, KTTS 211958Z AUTO 16005KT 8SM FEW034 SCT130 25/18 A3002 RMK AO2 SLP169 T02500179 Follow KTTS on AV Mobile Titusville, NASA Shuttle Landing Facility
KVPSFAA ID VPS, KVPS 211956Z 05004KT 5SM BR OVC006 13/12 A3003 RMK AO2A SLP173 T01350121 $ Follow KVPS on AV Mobile Valparaiso / Eglin Air Force Base
KVNCFAA ID VNC, AWOS-3, KVNC 211955Z AUTO 16012G16KT 10SM CLR 25/19 A3000 RMK AO2 TSNO Follow KVNC on AV Mobile VENICE 119.275
KX90ICAO ID KX90 Venice Long Range Navigation
KVRBFAA ID VRB, ASOS, KVRB 211953Z 13008KT 10SM OVC110 25/18 A3003 RMK AO2 SLP169 T02500183 Follow KVRB on AV Mobile VERO BEACH MUNICIPAL AIRPORT 772-978-9535
F45FAA ID F45, AWOS-3, KAJZ 212000Z AUTO 00000KT 7SM -SN SCT006 BKN029 OVC043 02/00 A2996 RMK AO2 T00230003 Follow  on AV Mobile WEST PALM BEACH 119.975 561-630-6932
KLNAFAA ID LNA, AWOS-3 WEST PALM BEACH 119.925 561-964-0308
KPBIFAA ID PBI, ASOS, KPBI 211953Z 14011KT 10SM SCT030 BKN120 BKN250 26/18 A3002 RMK AO2 SLP165 T02560178 Follow KPBI on AV Mobile PALM BEACH INTERNATIONAL 123.75 561-683-2548
FD38FAA ID FD38, Belfort WELLINGTON AERO CLUB
X60FAA ID X60, AWOS-3, KAJZ 212000Z AUTO 00000KT 7SM -SN SCT006 BKN029 OVC043 02/00 A2996 RMK AO2 T00230003 Follow  on AV Mobile WILLISTON 118.425 352-528-9949
KGIFFAA ID GIF, ASOS, KGIF 211953Z AUTO 19005KT 10SM BKN110 26/16 A3002 RMK AO2 SLP163 T02610161 Follow KGIF on AV Mobile WINTER HAVENS GILBERT AIRPORT 133.675 863-956-2097
KZPHFAA ID ZPH, ASOS, KZPH 211955Z AUTO 16004KT 10SM VCTS BKN060 OVC070 23/15 A3001 RMK AO2 LTG DSNT SW THRU NW Follow KZPH on AV Mobile ZEPHYRHILLS 118.975 813-780-0031

Click on the AV Mobile icon AV Mobile icon by any station to follow that AWOS feed on AirportView.net Mobile.

Garmin aera 796 $1999 at Avionics Specialists LLC
Bose A20 Aviation Headsets $995 at Avionics Specialists LLC